createdAt,value
2023-03-02T00:00:47.605Z,1.40
2023-03-02T00:01:47.603Z,1.36
2023-03-02T00:02:47.631Z,1.32
2023-03-02T00:03:47.594Z,1.24
2023-03-02T00:04:47.551Z,1.34
2023-03-02T00:05:47.540Z,1.25
2023-03-02T00:06:47.542Z,1.29
2023-03-02T00:07:47.535Z,1.37
2023-03-02T00:08:47.508Z,1.25
2023-03-02T00:09:47.498Z,1.29
2023-03-02T00:10:47.488Z,1.29
2023-03-02T00:11:47.481Z,1.21
2023-03-02T00:12:47.494Z,1.25
2023-03-02T00:13:47.470Z,1.21
2023-03-02T00:14:47.466Z,1.16
2023-03-02T00:15:47.532Z,1.10
2023-03-02T00:16:47.468Z,1.06
2023-03-02T00:17:47.430Z,1.10
2023-03-02T00:18:47.418Z,1.08
2023-03-02T00:19:47.406Z,1.15
2023-03-02T00:20:47.420Z,1.07
2023-03-02T00:21:47.410Z,1.04
2023-03-02T00:22:47.375Z,1.06
2023-03-02T00:23:47.369Z,0.94
2023-03-02T00:24:47.369Z,1.06
2023-03-02T00:25:47.365Z,0.90
2023-03-02T00:26:47.358Z,0.96
2023-03-02T00:27:47.338Z,0.89
2023-03-02T00:28:47.335Z,0.89
2023-03-02T00:29:47.348Z,0.97
2023-03-02T00:30:47.311Z,0.83
2023-03-02T00:31:47.332Z,0.92
2023-03-02T00:32:47.282Z,0.88
2023-03-02T00:33:47.284Z,0.89
2023-03-02T00:34:47.274Z,0.85
2023-03-02T00:35:47.303Z,0.85
2023-03-02T00:36:47.273Z,0.78
2023-03-02T00:37:47.238Z,0.75
2023-03-02T00:38:47.231Z,0.82
2023-03-02T00:39:47.225Z,0.75
2023-03-02T00:40:47.216Z,0.75
2023-03-02T00:41:47.229Z,0.68
2023-03-02T00:42:47.200Z,0.70
2023-03-02T00:43:47.180Z,0.70
2023-03-02T00:44:47.185Z,0.67
2023-03-02T00:45:47.161Z,0.67
2023-03-02T00:46:47.286Z,0.68
2023-03-02T00:47:47.174Z,0.68
2023-03-02T00:48:47.143Z,0.62
2023-03-02T00:49:47.131Z,0.58
2023-03-02T00:50:47.123Z,0.67
2023-03-02T00:51:47.112Z,0.58
2023-03-02T00:52:47.109Z,0.58
2023-03-02T00:53:47.085Z,0.49
2023-03-02T00:54:47.087Z,0.46
2023-03-02T00:55:47.070Z,0.58
2023-03-02T00:56:47.067Z,0.45
2023-03-02T00:57:47.050Z,0.48
2023-03-02T00:58:47.041Z,0.41
2023-03-02T00:59:47.062Z,0.30
2023-03-02T01:00:47.014Z,0.33
2023-03-02T01:01:47.046Z,0.34
2023-03-02T01:02:47.248Z,0.36
2023-03-02T01:03:47.010Z,0.28
2023-03-02T01:04:47.001Z,0.25
2023-03-02T01:05:46.981Z,0.34
2023-03-02T01:06:47.000Z,0.31
2023-03-02T01:07:46.995Z,0.34
2023-03-02T01:08:46.967Z,0.33
2023-03-02T01:09:46.945Z,0.34
2023-03-02T01:10:46.934Z,0.21
2023-03-02T01:11:46.986Z,0.34
2023-03-02T01:12:46.914Z,0.31
2023-03-02T01:13:46.911Z,0.24
2023-03-02T01:14:46.919Z,0.21
2023-03-02T01:15:46.900Z,0.28
2023-03-02T01:16:46.928Z,0.31
2023-03-02T01:17:46.883Z,0.34
2023-03-02T01:18:46.867Z,0.27
2023-03-02T01:19:46.882Z,0.18
2023-03-02T01:20:46.847Z,0.15
2023-03-02T01:21:46.890Z,0.12
2023-03-02T01:22:46.825Z,0.23
2023-03-02T01:23:46.861Z,0.16
2023-03-02T01:24:46.801Z,0.23
2023-03-02T01:25:46.798Z,0.07
2023-03-02T01:26:46.793Z,0.02
2023-03-02T01:27:46.785Z,0.16
2023-03-02T01:28:46.791Z,0.09
2023-03-02T01:29:46.771Z,0.10
2023-03-02T01:30:46.740Z,0.23
2023-03-02T01:31:46.776Z,0.13
2023-03-02T01:32:46.727Z,0.15
2023-03-02T01:33:46.737Z,0.21
2023-03-02T01:34:46.737Z,0.09
2023-03-02T01:35:46.864Z,0.07
2023-03-02T01:36:46.705Z,0.10
2023-03-02T01:37:46.703Z,0.15
2023-03-02T01:38:46.708Z,0.21
2023-03-02T01:39:46.663Z,0.10
2023-03-02T01:40:46.645Z,0.16
2023-03-02T01:41:46.650Z,0.02
2023-03-02T01:42:46.638Z,0.15
2023-03-02T01:43:46.621Z,0.13
2023-03-02T01:44:46.615Z,0.07
2023-03-02T01:45:46.644Z,0.24
2023-03-02T01:46:46.613Z,0.10
2023-03-02T01:47:46.583Z,0.18
2023-03-02T01:48:46.571Z,0.28
2023-03-02T01:49:46.557Z,0.23
2023-03-02T01:50:46.560Z,0.24
2023-03-02T01:51:46.551Z,0.23
2023-03-02T01:52:46.588Z,0.23
2023-03-02T01:53:46.592Z,0.25
2023-03-02T01:54:46.520Z,0.25
2023-03-02T01:55:46.505Z,0.25
2023-03-02T01:56:46.492Z,0.20
2023-03-02T01:57:46.492Z,0.25
2023-03-02T01:58:46.520Z,0.28
2023-03-02T01:59:46.473Z,0.31
2023-03-02T02:00:46.516Z,0.34
2023-03-02T02:01:46.454Z,0.31
2023-03-02T02:02:46.456Z,0.27
2023-03-02T02:03:46.516Z,0.27
2023-03-02T02:04:46.425Z,0.28
2023-03-02T02:05:46.420Z,0.27
2023-03-02T02:06:46.414Z,0.36
2023-03-02T02:07:46.385Z,0.36
2023-03-02T02:08:46.417Z,0.38
2023-03-02T02:09:46.381Z,0.31
2023-03-02T02:10:46.376Z,0.42
2023-03-02T02:11:46.357Z,0.52
2023-03-02T02:12:46.350Z,0.51
2023-03-02T02:13:46.355Z,0.42
2023-03-02T02:14:46.332Z,0.51
2023-03-02T02:15:46.314Z,0.48
2023-03-02T02:16:46.383Z,0.43
2023-03-02T02:17:46.303Z,0.46
2023-03-02T02:18:46.341Z,0.39
2023-03-02T02:19:46.271Z,0.49
2023-03-02T02:20:46.277Z,0.46
2023-03-02T02:21:46.254Z,0.45
2023-03-02T02:22:46.256Z,0.51
2023-03-02T02:23:46.237Z,0.43
2023-03-02T02:24:46.219Z,0.51
2023-03-02T02:25:46.220Z,0.42
2023-03-02T02:26:46.208Z,0.49
2023-03-02T02:27:46.214Z,0.46
2023-03-02T02:28:46.198Z,0.58
2023-03-02T02:29:46.176Z,0.45
2023-03-02T02:30:46.185Z,0.57
2023-03-02T02:31:46.286Z,0.42
2023-03-02T02:32:46.193Z,0.52
2023-03-02T02:33:46.168Z,0.48
2023-03-02T02:34:46.128Z,0.53
2023-03-02T02:35:46.135Z,0.45
2023-03-02T02:36:46.106Z,0.51
2023-03-02T02:37:46.093Z,0.42
2023-03-02T02:38:46.110Z,0.62
2023-03-02T02:39:46.085Z,0.43
2023-03-02T02:40:46.077Z,0.43
2023-03-02T02:41:46.061Z,0.53
2023-03-02T02:42:46.064Z,0.49
2023-03-02T02:43:46.066Z,0.45
2023-03-02T02:44:46.025Z,0.43
2023-03-02T02:45:47.078Z,0.42
2023-03-02T02:46:46.006Z,0.30
2023-03-02T02:47:46.030Z,0.41
2023-03-02T02:48:46.001Z,0.38
2023-03-02T02:49:45.973Z,0.28
2023-03-02T02:50:45.986Z,0.30
2023-03-02T02:51:45.958Z,0.39
2023-03-02T02:52:45.971Z,0.28
2023-03-02T02:53:45.942Z,0.27
2023-03-02T02:54:45.930Z,0.25
2023-03-02T02:55:45.910Z,0.24
2023-03-02T02:56:45.911Z,0.25
2023-03-02T02:57:45.919Z,0.30
2023-03-02T02:58:45.896Z,0.33
2023-03-02T02:59:45.878Z,0.16
2023-03-02T03:00:45.863Z,0.28
2023-03-02T03:01:45.872Z,0.25
2023-03-02T03:02:45.878Z,0.24
2023-03-02T03:03:45.849Z,0.18
2023-03-02T03:04:45.876Z,0.21
2023-03-02T03:05:45.822Z,0.18
2023-03-02T03:06:45.810Z,0.24
2023-03-02T03:07:45.840Z,0.27
2023-03-02T03:08:45.861Z,0.27
2023-03-02T03:09:45.868Z,0.16
2023-03-02T03:10:45.783Z,0.10
2023-03-02T03:11:45.760Z,0.18
2023-03-02T03:12:45.769Z,0.25
2023-03-02T03:13:45.740Z,0.28
2023-03-02T03:14:45.738Z,0.28
2023-03-02T03:15:45.720Z,0.20
2023-03-02T03:16:45.739Z,0.27
2023-03-02T03:17:45.720Z,0.10
2023-03-02T03:18:45.691Z,0.15
2023-03-02T03:19:45.674Z,0.13
2023-03-02T03:20:45.678Z,0.16
2023-03-02T03:21:45.691Z,0.13
2023-03-02T03:22:45.675Z,0.09
2023-03-02T03:23:45.637Z,0.20
2023-03-02T03:24:45.629Z,0.18
2023-03-02T03:25:45.613Z,0.13
2023-03-02T03:26:45.614Z,0.10
2023-03-02T03:27:45.613Z,0.21
2023-03-02T03:28:45.584Z,0.18
2023-03-02T03:29:45.573Z,0.18
2023-03-02T03:30:45.625Z,0.10
2023-03-02T03:31:45.556Z,0.10
2023-03-02T03:32:45.559Z,0.12
2023-03-02T03:33:45.530Z,0.15
2023-03-02T03:34:45.530Z,0.23
2023-03-02T03:35:45.561Z,0.15
2023-03-02T03:36:45.511Z,0.21
2023-03-02T03:37:45.506Z,0.18
2023-03-02T03:38:45.514Z,0.13
2023-03-02T03:39:45.473Z,0.24
2023-03-02T03:40:45.468Z,0.06
2023-03-02T03:41:45.465Z,0.13
2023-03-02T03:42:45.473Z,0.16
2023-03-02T03:43:45.444Z,0.16
2023-03-02T03:44:45.434Z,0.10
2023-03-02T03:45:45.450Z,0.16
2023-03-02T03:46:45.407Z,0.06
2023-03-02T03:47:45.418Z,0.02
2023-03-02T03:48:45.388Z,0.05
2023-03-02T03:49:45.378Z,0.09
2023-03-02T03:50:45.370Z,0.02
2023-03-02T03:51:45.361Z,-0.05
2023-03-02T03:52:45.412Z,0.05
2023-03-02T03:53:45.347Z,-0.04
2023-03-02T03:54:45.331Z,0.06
2023-03-02T03:55:45.317Z,0.00
2023-03-02T03:56:45.308Z,-0.08
2023-03-02T03:57:45.311Z,0.02
2023-03-02T03:58:45.380Z,-0.11
2023-03-02T03:59:45.276Z,-0.11
2023-03-02T04:00:45.277Z,-0.13
2023-03-02T04:01:45.308Z,-0.13
2023-03-02T04:02:45.370Z,-0.15
2023-03-02T04:03:45.241Z,-0.16
2023-03-02T04:04:45.228Z,-0.16
2023-03-02T04:05:45.226Z,-0.11
2023-03-02T04:06:45.214Z,-0.06
2023-03-02T04:07:45.229Z,-0.16
2023-03-02T04:08:45.190Z,-0.11
2023-03-02T04:09:45.184Z,-0.15
2023-03-02T04:10:45.166Z,-0.08
2023-03-02T04:11:45.179Z,-0.11
2023-03-02T04:12:45.214Z,-0.23
2023-03-02T04:13:45.146Z,-0.11
2023-03-02T04:14:45.137Z,-0.27
2023-03-02T04:15:47.029Z,-0.13
2023-03-02T04:16:46.116Z,-0.11
2023-03-02T04:17:45.154Z,-0.12
2023-03-02T04:18:45.096Z,-0.13
2023-03-02T04:19:45.088Z,-0.12
2023-03-02T04:20:45.069Z,-0.01
2023-03-02T04:21:45.102Z,0.05
2023-03-02T04:22:45.096Z,0.07
2023-03-02T04:23:45.044Z,0.02
2023-03-02T04:24:45.062Z,0.07
2023-03-02T04:25:45.012Z,0.07
2023-03-02T04:26:45.027Z,0.05
2023-03-02T04:27:45.033Z,0.06
2023-03-02T04:28:44.995Z,-0.01
2023-03-02T04:29:44.991Z,0.09
2023-03-02T04:30:45.015Z,-0.01
2023-03-02T04:31:44.971Z,0.15
2023-03-02T04:32:44.987Z,0.16
2023-03-02T04:33:44.947Z,0.10
2023-03-02T04:34:44.946Z,0.10
2023-03-02T04:35:44.994Z,0.16
2023-03-02T04:36:44.919Z,0.16
2023-03-02T04:38:16.855Z,0.06
2023-03-02T04:38:44.910Z,0.10
2023-03-02T04:39:44.912Z,0.09
2023-03-02T04:40:44.912Z,0.25
2023-03-02T04:41:44.885Z,0.15
2023-03-02T04:42:44.866Z,0.15
2023-03-02T04:43:44.866Z,0.12
2023-03-02T04:44:44.857Z,0.15
2023-03-02T04:45:44.853Z,0.16
2023-03-02T04:46:45.907Z,0.15
2023-03-02T04:47:44.839Z,0.20
2023-03-02T04:48:44.809Z,0.15
2023-03-02T04:49:44.823Z,0.23
2023-03-02T04:50:44.804Z,0.16
2023-03-02T04:51:44.795Z,0.18
2023-03-02T04:52:44.819Z,0.27
2023-03-02T04:53:44.795Z,0.13
2023-03-02T04:54:44.763Z,0.12
2023-03-02T04:55:44.763Z,0.20
2023-03-02T04:56:44.744Z,0.15
2023-03-02T04:57:44.764Z,0.16
2023-03-02T04:58:44.730Z,0.13
2023-03-02T04:59:44.706Z,0.10
2023-03-02T05:00:44.711Z,0.10
2023-03-02T05:01:44.692Z,0.24
2023-03-02T05:02:44.751Z,0.18
2023-03-02T05:03:44.703Z,0.07
2023-03-02T05:04:44.716Z,0.20
2023-03-02T05:05:44.646Z,0.21
2023-03-02T05:06:44.641Z,0.25
2023-03-02T05:07:44.640Z,0.16
2023-03-02T05:08:44.652Z,0.13
2023-03-02T05:09:44.616Z,0.13
2023-03-02T05:10:44.607Z,0.18
2023-03-02T05:11:44.591Z,0.18
2023-03-02T05:12:44.572Z,0.16
2023-03-02T05:13:44.577Z,0.12
2023-03-02T05:14:45.781Z,0.21
2023-03-02T05:15:45.600Z,0.21
2023-03-02T05:16:44.566Z,0.27
2023-03-02T05:17:44.538Z,0.13
2023-03-02T05:18:44.552Z,0.27
2023-03-02T05:19:44.528Z,0.10
2023-03-02T05:20:44.525Z,0.30
2023-03-02T05:21:44.489Z,0.25
2023-03-02T05:22:44.522Z,0.21
2023-03-02T05:23:44.534Z,0.34
2023-03-02T05:24:44.468Z,0.27
2023-03-02T05:25:44.449Z,0.20
2023-03-02T05:26:44.440Z,0.31
2023-03-02T05:27:44.432Z,0.18
2023-03-02T05:28:44.435Z,0.24
2023-03-02T05:29:44.426Z,0.30
2023-03-02T05:30:44.398Z,0.33
2023-03-02T05:31:44.464Z,0.23
2023-03-02T05:32:44.389Z,0.23
2023-03-02T05:33:44.403Z,0.24
2023-03-02T05:34:44.367Z,0.28
2023-03-02T05:35:44.433Z,0.23
2023-03-02T05:36:44.347Z,0.30
2023-03-02T05:37:44.337Z,0.33
2023-03-02T05:38:44.347Z,0.31
2023-03-02T05:39:44.325Z,0.28
2023-03-02T05:40:44.310Z,0.30
2023-03-02T05:41:44.300Z,0.33
2023-03-02T05:42:44.288Z,0.31
2023-03-02T05:43:44.332Z,0.31
2023-03-02T05:44:44.270Z,0.33
2023-03-02T05:45:44.258Z,0.34
2023-03-02T05:46:44.295Z,0.28
2023-03-02T05:47:44.249Z,0.39
2023-03-02T05:48:44.258Z,0.30
2023-03-02T05:49:44.231Z,0.27
2023-03-02T05:50:44.209Z,0.28
2023-03-02T05:51:44.244Z,0.30
2023-03-02T05:52:44.220Z,0.41
2023-03-02T05:53:44.207Z,0.42
2023-03-02T05:54:44.189Z,0.36
2023-03-02T05:55:44.166Z,0.34
2023-03-02T05:56:44.264Z,0.28
2023-03-02T05:57:44.148Z,0.30
2023-03-02T05:58:44.158Z,0.30
2023-03-02T05:59:44.114Z,0.31
2023-03-02T06:00:44.109Z,0.31
2023-03-02T06:01:44.142Z,0.39
2023-03-02T06:02:44.262Z,0.30
2023-03-02T06:03:44.101Z,0.33
2023-03-02T06:04:44.088Z,0.34
2023-03-02T06:05:44.060Z,0.25
2023-03-02T06:06:44.055Z,0.33
2023-03-02T06:07:44.721Z,0.28
2023-03-02T06:08:44.051Z,0.18
2023-03-02T06:09:44.011Z,0.28
2023-03-02T06:10:45.041Z,0.34
2023-03-02T06:11:44.004Z,0.21
2023-03-02T06:12:43.995Z,0.30
2023-03-02T06:13:44.019Z,0.27
2023-03-02T06:14:43.977Z,0.34
2023-03-02T06:15:44.013Z,0.28
2023-03-02T06:16:43.980Z,0.30
2023-03-02T06:17:43.942Z,0.28
2023-03-02T06:18:43.959Z,0.30
2023-03-02T06:19:43.921Z,0.27
2023-03-02T06:20:43.926Z,0.27
2023-03-02T06:21:43.923Z,0.33
2023-03-02T06:22:43.895Z,0.38
2023-03-02T06:23:43.924Z,0.43
2023-03-02T06:24:43.878Z,0.38
2023-03-02T06:25:43.866Z,0.38
2023-03-02T06:26:43.852Z,0.41
2023-03-02T06:27:43.852Z,0.46
2023-03-02T06:28:52.114Z,0.51
2023-03-02T06:29:45.832Z,0.60
2023-03-02T06:30:43.821Z,0.49
2023-03-02T06:31:43.872Z,0.45
2023-03-02T06:32:43.850Z,0.60
2023-03-02T06:33:43.820Z,0.60
2023-03-02T06:34:43.783Z,0.64
2023-03-02T06:35:43.853Z,0.57
2023-03-02T06:36:43.771Z,0.57
2023-03-02T06:37:44.490Z,0.64
2023-03-02T06:38:44.786Z,0.61
2023-03-02T06:39:43.741Z,0.70
2023-03-02T06:40:43.729Z,0.62
2023-03-02T06:41:43.752Z,0.72
2023-03-02T06:42:43.706Z,0.72
2023-03-02T06:43:43.913Z,0.76
2023-03-02T06:44:43.698Z,0.75
2023-03-02T06:45:43.786Z,0.80
2023-03-02T06:46:43.678Z,0.65
2023-03-02T06:47:43.662Z,0.76
2023-03-02T06:48:43.709Z,0.88
2023-03-02T06:49:43.646Z,0.79
2023-03-02T06:50:43.643Z,0.79
2023-03-02T06:51:43.645Z,0.94
2023-03-02T06:52:43.629Z,0.75
2023-03-02T06:53:43.618Z,0.78
2023-03-02T06:54:43.624Z,0.89
2023-03-02T06:55:43.594Z,0.89
2023-03-02T06:56:43.645Z,0.82
2023-03-02T06:57:43.580Z,0.86
2023-03-02T06:58:43.579Z,0.94
2023-03-02T06:59:43.554Z,0.90
2023-03-02T07:00:43.553Z,0.97
2023-03-02T07:01:43.555Z,0.96
2023-03-02T07:02:43.521Z,0.88
2023-03-02T07:03:43.592Z,0.98
2023-03-02T07:04:43.496Z,0.98
2023-03-02T07:05:45.998Z,0.97
2023-03-02T07:06:44.479Z,1.14
2023-03-02T07:07:43.523Z,1.16
2023-03-02T07:08:43.485Z,1.08
2023-03-02T07:09:43.450Z,1.15
2023-03-02T07:10:43.450Z,1.18
2023-03-02T07:11:43.434Z,1.18
2023-03-02T07:12:43.421Z,1.19
2023-03-02T07:13:43.441Z,1.18
2023-03-02T07:14:43.409Z,1.26
2023-03-02T07:15:43.392Z,1.22
2023-03-02T07:16:43.472Z,1.32
2023-03-02T07:17:43.427Z,1.21
2023-03-02T07:18:43.385Z,1.16
2023-03-02T07:19:43.360Z,1.26
2023-03-02T07:20:43.362Z,1.25
2023-03-02T07:21:43.341Z,1.29
2023-03-02T07:22:43.334Z,1.28
2023-03-02T07:23:43.340Z,1.33
2023-03-02T07:24:44.952Z,1.26
2023-03-02T07:25:44.320Z,1.36
2023-03-02T07:26:43.286Z,1.29
2023-03-02T07:27:43.348Z,1.36
2023-03-02T07:28:43.302Z,1.39
2023-03-02T07:29:43.268Z,1.39
2023-03-02T07:30:43.298Z,1.54
2023-03-02T07:31:43.245Z,1.44
2023-03-02T07:32:43.238Z,1.47
2023-03-02T07:33:43.259Z,1.44
2023-03-02T07:34:43.219Z,1.42
2023-03-02T07:35:43.262Z,1.62
2023-03-02T07:36:43.204Z,1.52
2023-03-02T07:37:43.254Z,1.57
2023-03-02T07:38:43.222Z,1.50
2023-03-02T07:39:43.197Z,1.47
2023-03-02T07:40:43.185Z,1.61
2023-03-02T07:41:43.157Z,1.62
2023-03-02T07:42:43.148Z,1.65
2023-03-02T07:43:43.154Z,1.82
2023-03-02T07:44:43.129Z,1.80
2023-03-02T07:45:43.122Z,1.72
2023-03-02T07:46:43.188Z,1.93
2023-03-02T07:47:43.103Z,1.80
2023-03-02T07:48:43.116Z,1.85
2023-03-02T07:49:43.088Z,1.83
2023-03-02T07:50:43.083Z,1.80
2023-03-02T07:51:43.073Z,1.90
2023-03-02T07:52:43.069Z,1.90
2023-03-02T07:53:43.099Z,1.94
2023-03-02T07:54:43.051Z,1.97
2023-03-02T07:55:43.034Z,2.04
2023-03-02T07:56:43.029Z,2.04
2023-03-02T07:57:43.016Z,2.17
2023-03-02T07:58:43.033Z,2.16
2023-03-02T07:59:43.017Z,2.26
2023-03-02T08:00:42.991Z,2.10
2023-03-02T08:01:43.013Z,2.23
2023-03-02T08:02:43.042Z,2.17
2023-03-02T08:03:42.985Z,2.20
2023-03-02T08:04:42.956Z,2.35
2023-03-02T08:05:42.946Z,2.40
2023-03-02T08:06:42.940Z,2.41
2023-03-02T08:07:42.936Z,2.51
2023-03-02T08:08:42.957Z,2.38
2023-03-02T08:09:42.914Z,2.46
2023-03-02T08:10:42.912Z,2.49
2023-03-02T08:11:42.922Z,2.45
2023-03-02T08:12:42.911Z,2.66
2023-03-02T08:13:42.902Z,2.70
2023-03-02T08:14:42.882Z,2.73
2023-03-02T08:15:42.888Z,2.74
2023-03-02T08:16:42.967Z,2.76
2023-03-02T08:17:42.901Z,2.82
2023-03-02T08:18:42.865Z,2.76
2023-03-02T08:19:42.840Z,2.87
2023-03-02T08:20:42.848Z,2.88
2023-03-02T08:21:42.830Z,3.07
2023-03-02T08:22:42.807Z,2.97
2023-03-02T08:23:42.899Z,3.03
2023-03-02T08:24:42.792Z,3.05
2023-03-02T08:25:42.777Z,3.18
2023-03-02T08:26:42.809Z,3.16
2023-03-02T08:27:42.802Z,3.36
2023-03-02T08:28:42.798Z,3.21
2023-03-02T08:29:42.753Z,3.40
2023-03-02T08:30:42.742Z,3.36
2023-03-02T08:31:42.812Z,3.50
2023-03-02T08:32:42.759Z,3.53
2023-03-02T08:33:42.722Z,3.47
2023-03-02T08:34:42.742Z,3.54
2023-03-02T08:35:42.770Z,3.46
2023-03-02T08:36:42.698Z,3.58
2023-03-02T08:37:42.695Z,3.68
2023-03-02T08:38:42.688Z,3.58
2023-03-02T08:39:42.706Z,3.62
2023-03-02T08:40:42.674Z,3.71
2023-03-02T08:41:42.649Z,3.76
2023-03-02T08:42:42.658Z,3.78
2023-03-02T08:43:42.640Z,3.96
2023-03-02T08:44:42.687Z,3.89
2023-03-02T08:45:42.664Z,3.97
2023-03-02T08:46:42.620Z,4.06
2023-03-02T08:47:42.605Z,3.98
2023-03-02T08:48:42.591Z,4.01
2023-03-02T08:49:42.621Z,4.00
2023-03-02T08:50:42.589Z,4.06
2023-03-02T08:51:42.587Z,4.04
2023-03-02T08:52:42.577Z,4.10
2023-03-02T08:53:42.556Z,4.07
2023-03-02T08:54:42.574Z,4.01
2023-03-02T08:55:42.535Z,4.08
2023-03-02T08:56:42.519Z,4.24
2023-03-02T08:57:42.561Z,4.25
2023-03-02T08:58:42.496Z,4.16
2023-03-02T08:59:42.573Z,4.18
2023-03-02T09:00:42.470Z,4.32
2023-03-02T09:01:42.519Z,4.16
2023-03-02T09:02:42.497Z,4.39
2023-03-02T09:03:42.446Z,4.29
2023-03-02T09:04:42.541Z,4.33
2023-03-02T09:05:42.414Z,4.44
2023-03-02T09:06:42.419Z,4.40
2023-03-02T09:07:42.400Z,4.37
2023-03-02T09:08:42.402Z,4.46
2023-03-02T09:09:42.402Z,4.57
2023-03-02T09:10:42.367Z,4.50
2023-03-02T09:11:42.390Z,4.64
2023-03-02T09:12:42.352Z,4.55
2023-03-02T09:13:42.344Z,4.57
2023-03-02T09:14:42.358Z,4.62
2023-03-02T09:15:42.316Z,4.58
2023-03-02T09:16:42.327Z,4.69
2023-03-02T09:17:42.319Z,4.75
2023-03-02T09:18:42.288Z,4.67
2023-03-02T09:19:44.501Z,4.80
2023-03-02T09:20:43.291Z,4.75
2023-03-02T09:21:42.255Z,4.76
2023-03-02T09:22:42.272Z,4.73
2023-03-02T09:23:42.240Z,4.75
2023-03-02T09:24:42.249Z,4.88
2023-03-02T09:25:42.767Z,4.83
2023-03-02T09:26:42.217Z,4.69
2023-03-02T09:27:42.209Z,4.80
2023-03-02T09:28:42.191Z,4.76
2023-03-02T09:29:42.211Z,4.89
2023-03-02T09:30:42.176Z,5.01
2023-03-02T09:31:42.169Z,4.98
2023-03-02T09:32:42.251Z,5.02
2023-03-02T09:33:42.143Z,5.02
2023-03-02T09:34:42.159Z,5.01
2023-03-02T09:35:42.108Z,5.09
2023-03-02T09:36:42.095Z,5.22
2023-03-02T09:37:44.268Z,5.16
2023-03-02T09:38:42.084Z,5.22
2023-03-02T09:39:42.168Z,5.30
2023-03-02T09:40:42.067Z,5.17
2023-03-02T09:41:42.034Z,5.23
2023-03-02T09:42:44.343Z,5.34
2023-03-02T09:43:43.035Z,5.32
2023-03-02T09:44:42.077Z,5.41
2023-03-02T09:45:42.033Z,5.40
2023-03-02T09:46:43.011Z,5.46
2023-03-02T09:47:41.980Z,5.45
2023-03-02T09:48:41.975Z,5.60
2023-03-02T09:49:41.971Z,5.52
2023-03-02T09:50:41.952Z,5.55
2023-03-02T09:51:41.945Z,5.64
2023-03-02T09:52:41.929Z,5.66
2023-03-02T09:53:41.918Z,5.77
2023-03-02T09:54:41.990Z,5.78
2023-03-02T09:55:41.886Z,5.86
2023-03-02T09:56:41.885Z,5.83
2023-03-02T09:57:41.878Z,5.83
2023-03-02T09:58:41.865Z,6.00
2023-03-02T09:59:42.018Z,5.89
2023-03-02T10:00:41.831Z,5.96
2023-03-02T10:01:41.837Z,5.85
2023-03-02T10:02:42.071Z,6.00
2023-03-02T10:03:42.890Z,6.10
2023-03-02T10:04:41.880Z,6.01
2023-03-02T10:05:41.774Z,5.85
2023-03-02T10:06:41.772Z,5.96
2023-03-02T10:07:41.757Z,5.95
2023-03-02T10:08:41.776Z,5.96
2023-03-02T10:09:41.743Z,6.14
2023-03-02T10:10:41.723Z,6.11
2023-03-02T10:11:41.720Z,6.18
2023-03-02T10:12:41.714Z,6.09
2023-03-02T10:13:41.713Z,6.19
2023-03-02T10:14:41.762Z,6.21
2023-03-02T10:15:41.695Z,6.13
2023-03-02T10:16:41.720Z,6.09
2023-03-02T10:17:41.646Z,6.07
2023-03-02T10:18:41.634Z,6.19
2023-03-02T10:19:41.643Z,6.25
2023-03-02T10:20:41.622Z,6.11
2023-03-02T10:21:41.595Z,6.10
2023-03-02T10:22:41.585Z,6.18
2023-03-02T10:23:41.627Z,6.25
2023-03-02T10:24:41.603Z,6.35
2023-03-02T10:25:41.559Z,6.41
2023-03-02T10:26:41.544Z,6.30
2023-03-02T10:27:41.575Z,6.41
2023-03-02T10:28:41.533Z,6.61
2023-03-02T10:29:41.557Z,6.59
2023-03-02T10:30:41.542Z,6.54
2023-03-02T10:31:41.497Z,6.72
2023-03-02T10:32:41.480Z,6.76
2023-03-02T10:33:41.480Z,6.80
2023-03-02T10:34:41.498Z,6.77
2023-03-02T10:35:41.508Z,6.87
2023-03-02T10:36:41.442Z,6.98
2023-03-02T10:38:59.913Z,7.07
2023-03-02T10:39:59.959Z,7.01
2023-03-02T10:40:59.991Z,7.04
2023-03-02T10:41:59.939Z,7.01
2023-03-02T10:42:59.909Z,7.02
2023-03-02T10:44:00.999Z,7.01
2023-03-02T10:45:02.043Z,7.02
2023-03-02T10:46:01.048Z,7.23
2023-03-02T10:47:00.973Z,7.24
2023-03-02T10:48:00.973Z,7.20
2023-03-02T10:49:00.952Z,7.12
2023-03-02T10:50:00.971Z,7.37
2023-03-02T10:51:00.941Z,7.24
2023-03-02T10:52:00.976Z,7.31
2023-03-02T10:53:02.537Z,7.37
2023-03-02T10:54:01.933Z,7.22
2023-03-02T10:55:00.905Z,7.17
2023-03-02T10:56:00.881Z,7.16
2023-03-02T10:57:00.879Z,7.19
2023-03-02T10:58:00.876Z,7.20
2023-03-02T10:59:00.894Z,7.32
2023-03-02T11:00:00.841Z,7.40
2023-03-02T11:01:00.857Z,7.49
2023-03-02T11:02:00.877Z,7.72
2023-03-02T11:03:00.803Z,7.62
2023-03-02T11:04:00.794Z,7.59
2023-03-02T11:05:00.852Z,7.82
2023-03-02T11:06:00.787Z,7.84
2023-03-02T11:07:00.778Z,7.89
2023-03-02T11:08:00.759Z,7.81
2023-03-02T11:09:00.773Z,7.79
2023-03-02T11:10:00.768Z,7.63
2023-03-02T11:11:01.450Z,7.66
2023-03-02T11:12:00.766Z,7.75
2023-03-02T11:13:00.735Z,7.90
2023-03-02T11:14:00.711Z,7.81
2023-03-02T11:15:00.737Z,7.74
2023-03-02T11:16:00.746Z,7.84
2023-03-02T11:17:02.450Z,7.79
2023-03-02T11:18:00.679Z,7.77
2023-03-02T11:19:00.665Z,7.89
2023-03-02T11:20:00.669Z,7.77
2023-03-02T11:21:00.638Z,7.92
2023-03-02T11:22:00.643Z,7.89
2023-03-02T11:23:00.618Z,7.85
2023-03-02T11:24:00.640Z,7.92
2023-03-02T11:25:00.684Z,8.11
2023-03-02T11:26:00.589Z,7.99
2023-03-02T11:27:00.606Z,7.99
2023-03-02T11:28:00.572Z,8.10
2023-03-02T11:29:00.590Z,8.10
2023-03-02T11:30:00.592Z,8.02
2023-03-02T11:31:00.573Z,7.89
2023-03-02T11:32:00.594Z,7.93
2023-03-02T11:33:00.549Z,8.00
2023-03-02T11:34:07.876Z,8.04
2023-03-02T11:35:02.531Z,8.25
2023-03-02T11:36:00.528Z,8.28
2023-03-02T11:37:00.506Z,8.26
2023-03-02T11:38:00.480Z,8.08
2023-03-02T11:39:00.460Z,8.20
2023-03-02T11:40:00.474Z,8.30
2023-03-02T11:41:00.445Z,8.33
2023-03-02T11:42:00.499Z,8.30
2023-03-02T11:43:00.429Z,8.20
2023-03-02T11:44:00.425Z,8.35
2023-03-02T11:45:00.449Z,8.30
2023-03-02T11:46:00.422Z,8.22
2023-03-02T11:47:00.436Z,8.25
2023-03-02T11:48:03.478Z,8.40
2023-03-02T11:49:01.370Z,8.45
2023-03-02T11:50:00.374Z,8.45
2023-03-02T11:51:00.383Z,8.57
2023-03-02T11:52:00.337Z,8.62
2023-03-02T11:53:00.326Z,8.68
2023-03-02T11:54:00.463Z,8.72
2023-03-02T11:55:00.313Z,8.81
2023-03-02T11:56:00.318Z,8.84
2023-03-02T11:57:00.283Z,8.97
2023-03-02T11:59:00.289Z,8.97
2023-03-02T12:00:00.268Z,8.97
2023-03-02T12:01:00.266Z,8.84
2023-03-02T12:02:00.366Z,8.87
2023-03-02T12:03:00.321Z,8.79
2023-03-02T12:04:00.215Z,8.86
2023-03-02T12:05:01.241Z,8.62
2023-03-02T12:06:00.268Z,8.69
2023-03-02T12:07:00.181Z,8.69
2023-03-02T12:08:00.174Z,8.81
2023-03-02T12:09:00.211Z,8.83
2023-03-02T12:10:00.167Z,8.79
2023-03-02T12:11:00.160Z,8.79
2023-03-02T12:12:01.448Z,8.86
2023-03-02T12:13:00.162Z,8.86
2023-03-02T12:14:00.176Z,8.94
2023-03-02T12:15:00.122Z,8.99
2023-03-02T12:16:00.316Z,9.06
2023-03-02T12:17:00.129Z,9.05
2023-03-02T12:18:00.193Z,9.15
2023-03-02T12:19:00.112Z,9.13
2023-03-02T12:20:00.407Z,9.05
2023-03-02T12:21:00.125Z,9.04
2023-03-02T12:22:00.057Z,8.88
2023-03-02T12:23:00.692Z,8.94
2023-03-02T12:24:00.027Z,8.96
2023-03-02T12:25:00.014Z,9.01
2023-03-02T12:26:00.044Z,9.01
2023-03-02T12:27:00.001Z,8.93
2023-03-02T12:27:59.985Z,9.01
2023-03-02T12:28:59.976Z,9.06
2023-03-02T12:29:59.967Z,9.04
2023-03-02T12:31:00.017Z,9.20
2023-03-02T12:32:00.017Z,9.28
2023-03-02T12:32:59.949Z,9.31
2023-03-02T12:33:59.932Z,9.40
2023-03-02T12:34:59.915Z,9.32
2023-03-02T12:35:59.936Z,9.20
2023-03-02T12:36:59.978Z,9.27
2023-03-02T12:37:59.984Z,9.13
2023-03-02T12:38:59.881Z,9.15
2023-03-02T12:40:02.213Z,9.16
2023-03-02T12:40:59.874Z,9.25
2023-03-02T12:41:59.899Z,9.21
2023-03-02T12:42:59.872Z,9.28
2023-03-02T12:43:59.894Z,9.23
2023-03-02T12:44:59.934Z,9.16
2023-03-02T12:45:59.850Z,9.38
2023-03-02T12:46:59.804Z,9.28
2023-03-02T12:48:00.179Z,9.46
2023-03-02T12:48:59.982Z,9.46
2023-03-02T12:49:59.772Z,9.56
2023-03-02T12:50:59.798Z,9.52
2023-03-02T12:51:59.815Z,9.53
2023-03-02T12:52:59.745Z,9.61
2023-03-02T12:53:59.735Z,9.60
2023-03-02T12:54:59.721Z,9.49
2023-03-02T12:55:59.795Z,9.48
2023-03-02T12:56:59.704Z,9.34
2023-03-02T12:57:59.735Z,9.46
2023-03-02T12:58:59.688Z,9.32
2023-03-02T12:59:59.715Z,9.40
2023-03-02T13:00:59.753Z,9.39
2023-03-02T13:01:59.658Z,9.27
2023-03-02T13:02:59.810Z,9.35
2023-03-02T13:03:59.699Z,9.43
2023-03-02T13:04:59.622Z,9.48
2023-03-02T13:05:59.642Z,9.49
2023-03-02T13:06:59.623Z,9.56
2023-03-02T13:07:59.614Z,9.57
2023-03-02T13:08:59.610Z,9.61
2023-03-02T13:09:59.622Z,9.53
2023-03-02T13:10:59.587Z,9.60
2023-03-02T13:11:59.563Z,9.50
2023-03-02T13:13:00.631Z,9.50
2023-03-02T13:13:59.554Z,9.60
2023-03-02T13:14:59.524Z,9.67
2023-03-02T13:15:59.531Z,9.66
2023-03-02T13:16:59.539Z,9.73
2023-03-02T13:17:59.492Z,9.64
2023-03-02T13:18:59.480Z,9.52
2023-03-02T13:19:59.473Z,9.60